sensor_id;sensor_type;location;lat;lon;timestamp;temperature;humidity
51383;DHT22;37475;43.358;1.248;2022-12-07T00:01:37;8.30;92.00
51383;DHT22;37475;43.358;1.248;2022-12-07T00:04:05;8.30;91.90
51383;DHT22;37475;43.358;1.248;2022-12-07T00:06:34;8.30;91.90
51383;DHT22;37475;43.358;1.248;2022-12-07T00:09:06;8.30;91.70
51383;DHT22;37475;43.358;1.248;2022-12-07T00:11:33;8.20;91.80
51383;DHT22;37475;43.358;1.248;2022-12-07T00:14:02;8.20;91.90
51383;DHT22;37475;43.358;1.248;2022-12-07T00:16:31;8.10;92.20
51383;DHT22;37475;43.358;1.248;2022-12-07T00:18:58;8.10;92.20
51383;DHT22;37475;43.358;1.248;2022-12-07T00:21:27;8.10;92.10
51383;DHT22;37475;43.358;1.248;2022-12-07T00:23:55;8.20;92.20
51383;DHT22;37475;43.358;1.248;2022-12-07T00:26:30;8.10;92.10
51383;DHT22;37475;43.358;1.248;2022-12-07T00:29:12;8.20;92.20
51383;DHT22;37475;43.358;1.248;2022-12-07T00:31:40;8.20;92.20
51383;DHT22;37475;43.358;1.248;2022-12-07T00:34:07;8.20;92.10
51383;DHT22;37475;43.358;1.248;2022-12-07T00:36:40;8.20;92.00
51383;DHT22;37475;43.358;1.248;2022-12-07T00:39:06;8.00;91.80
51383;DHT22;37475;43.358;1.248;2022-12-07T00:41:32;8.00;91.90
51383;DHT22;37475;43.358;1.248;2022-12-07T00:43:58;7.90;92.00
51383;DHT22;37475;43.358;1.248;2022-12-07T00:46:24;7.90;92.10
51383;DHT22;37475;43.358;1.248;2022-12-07T00:48:51;7.90;92.10
51383;DHT22;37475;43.358;1.248;2022-12-07T00:51:20;7.90;92.20
51383;DHT22;37475;43.358;1.248;2022-12-07T00:53:47;8.00;92.20
51383;DHT22;37475;43.358;1.248;2022-12-07T00:56:15;8.00;92.10
51383;DHT22;37475;43.358;1.248;2022-12-07T00:58:43;7.90;92.00
51383;DHT22;37475;43.358;1.248;2022-12-07T01:01:10;7.90;92.10
51383;DHT22;37475;43.358;1.248;2022-12-07T01:03:37;7.90;92.20
51383;DHT22;37475;43.358;1.248;2022-12-07T01:06:03;7.80;92.20
51383;DHT22;37475;43.358;1.248;2022-12-07T01:08:30;7.80;92.40
51383;DHT22;37475;43.358;1.248;2022-12-07T01:11:07;7.90;92.50
51383;DHT22;37475;43.358;1.248;2022-12-07T01:13:35;8.00;92.30
51383;DHT22;37475;43.358;1.248;2022-12-07T01:16:03;7.90;92.40
51383;DHT22;37475;43.358;1.248;2022-12-07T01:18:32;7.70;92.60
51383;DHT22;37475;43.358;1.248;2022-12-07T01:23:27;7.70;92.90
51383;DHT22;37475;43.358;1.248;2022-12-07T01:25:58;7.60;93.10
51383;DHT22;37475;43.358;1.248;2022-12-07T01:28:26;7.80;93.10
51383;DHT22;37475;43.358;1.248;2022-12-07T01:31:00;7.60;93.00
51383;DHT22;37475;43.358;1.248;2022-12-07T01:33:36;7.60;93.10
51383;DHT22;37475;43.358;1.248;2022-12-07T01:36:13;7.60;93.10
51383;DHT22;37475;43.358;1.248;2022-12-07T01:38:40;7.70;93.10
51383;DHT22;37475;43.358;1.248;2022-12-07T01:41:07;7.60;93.20
51383;DHT22;37475;43.358;1.248;2022-12-07T01:43:34;7.60;93.30
51383;DHT22;37475;43.358;1.248;2022-12-07T01:46:01;7.70;93.20
51383;DHT22;37475;43.358;1.248;2022-12-07T01:48:39;7.70;93.20
51383;DHT22;37475;43.358;1.248;2022-12-07T01:51:12;7.70;93.10
51383;DHT22;37475;43.358;1.248;2022-12-07T01:53:42;7.60;93.10
51383;DHT22;37475;43.358;1.248;2022-12-07T01:56:11;7.60;93.20
51383;DHT22;37475;43.358;1.248;2022-12-07T01:58:41;7.60;93.30
51383;DHT22;37475;43.358;1.248;2022-12-07T02:01:07;7.70;93.10
51383;DHT22;37475;43.358;1.248;2022-12-07T02:03:43;7.70;92.90
51383;DHT22;37475;43.358;1.248;2022-12-07T02:06:13;7.80;92.90
51383;DHT22;37475;43.358;1.248;2022-12-07T02:08:43;7.70;92.60
51383;DHT22;37475;43.358;1.248;2022-12-07T02:11:09;7.80;92.40
51383;DHT22;37475;43.358;1.248;2022-12-07T02:13:38;7.90;92.30
51383;DHT22;37475;43.358;1.248;2022-12-07T02:16:23;7.80;92.00
51383;DHT22;37475;43.358;1.248;2022-12-07T02:30:15;7.70;91.80
51383;DHT22;37475;43.358;1.248;2022-12-07T02:35:45;7.50;91.90
51383;DHT22;37475;43.358;1.248;2022-12-07T02:38:31;7.50;92.00
51383;DHT22;37475;43.358;1.248;2022-12-07T02:41:11;7.50;92.10
51383;DHT22;37475;43.358;1.248;2022-12-07T02:43:46;7.50;92.20
51383;DHT22;37475;43.358;1.248;2022-12-07T02:46:21;7.40;92.10
51383;DHT22;37475;43.358;1.248;2022-12-07T02:48:50;7.50;92.40
51383;DHT22;37475;43.358;1.248;2022-12-07T02:51:20;7.50;92.20
51383;DHT22;37475;43.358;1.248;2022-12-07T02:53:47;7.30;92.80
51383;DHT22;37475;43.358;1.248;2022-12-07T03:14:31;7.40;93.60
51383;DHT22;37475;43.358;1.248;2022-12-07T03:17:12;7.20;93.90
51383;DHT22;37475;43.358;1.248;2022-12-07T03:19:43;7.20;94.20
51383;DHT22;37475;43.358;1.248;2022-12-07T03:22:12;7.20;94.30
51383;DHT22;37475;43.358;1.248;2022-12-07T03:24:45;7.30;94.30
51383;DHT22;37475;43.358;1.248;2022-12-07T03:27:52;7.40;94.30
51383;DHT22;37475;43.358;1.248;2022-12-07T03:30:44;7.50;94.20
51383;DHT22;37475;43.358;1.248;2022-12-07T03:33:20;7.40;94.00
51383;DHT22;37475;43.358;1.248;2022-12-07T03:38:51;7.60;94.00
51383;DHT22;37475;43.358;1.248;2022-12-07T03:41:29;7.60;93.90
51383;DHT22;37475;43.358;1.248;2022-12-07T03:43:57;7.70;93.70
51383;DHT22;37475;43.358;1.248;2022-12-07T03:47:01;7.60;93.50
51383;DHT22;37475;43.358;1.248;2022-12-07T03:49:34;7.60;93.50
51383;DHT22;37475;43.358;1.248;2022-12-07T03:55:04;7.60;93.60
51383;DHT22;37475;43.358;1.248;2022-12-07T03:57:35;7.60;93.50
51383;DHT22;37475;43.358;1.248;2022-12-07T04:00:04;7.70;93.40
51383;DHT22;37475;43.358;1.248;2022-12-07T04:02:32;7.80;93.30
51383;DHT22;37475;43.358;1.248;2022-12-07T04:04:58;7.80;93.10
51383;DHT22;37475;43.358;1.248;2022-12-07T04:07:25;7.80;93.00
51383;DHT22;37475;43.358;1.248;2022-12-07T04:09:50;7.80;92.90
51383;DHT22;37475;43.358;1.248;2022-12-07T04:12:16;7.80;92.90
51383;DHT22;37475;43.358;1.248;2022-12-07T04:14:42;7.70;92.80
51383;DHT22;37475;43.358;1.248;2022-12-07T04:17:08;7.60;93.00
51383;DHT22;37475;43.358;1.248;2022-12-07T04:19:34;7.60;93.10
51383;DHT22;37475;43.358;1.248;2022-12-07T04:22:01;7.60;93.20
51383;DHT22;37475;43.358;1.248;2022-12-07T04:24:28;7.60;93.30
51383;DHT22;37475;43.358;1.248;2022-12-07T04:26:54;7.60;93.40
51383;DHT22;37475;43.358;1.248;2022-12-07T04:29:21;7.70;93.30
51383;DHT22;37475;43.358;1.248;2022-12-07T04:31:48;7.70;93.20
51383;DHT22;37475;43.358;1.248;2022-12-07T04:34:14;7.80;93.10
51383;DHT22;37475;43.358;1.248;2022-12-07T04:36:41;7.80;93.00
51383;DHT22;37475;43.358;1.248;2022-12-07T04:39:10;7.90;92.90
51383;DHT22;37475;43.358;1.248;2022-12-07T04:41:43;7.80;92.80
51383;DHT22;37475;43.358;1.248;2022-12-07T04:44:08;7.90;92.70
51383;DHT22;37475;43.358;1.248;2022-12-07T04:46:34;7.90;92.50
51383;DHT22;37475;43.358;1.248;2022-12-07T04:49:00;7.90;92.50
51383;DHT22;37475;43.358;1.248;2022-12-07T04:51:28;7.80;92.50
51383;DHT22;37475;43.358;1.248;2022-12-07T04:53:55;7.90;92.50
51383;DHT22;37475;43.358;1.248;2022-12-07T04:56:22;7.80;92.50
51383;DHT22;37475;43.358;1.248;2022-12-07T04:58:48;7.80;92.60
51383;DHT22;37475;43.358;1.248;2022-12-07T05:01:16;7.80;92.60
51383;DHT22;37475;43.358;1.248;2022-12-07T05:03:42;7.90;92.50
51383;DHT22;37475;43.358;1.248;2022-12-07T05:06:09;7.80;92.50
51383;DHT22;37475;43.358;1.248;2022-12-07T05:08:36;7.80;92.50
51383;DHT22;37475;43.358;1.248;2022-12-07T05:11:03;7.90;92.50
51383;DHT22;37475;43.358;1.248;2022-12-07T05:13:30;7.90;92.50
51383;DHT22;37475;43.358;1.248;2022-12-07T05:15:56;7.90;92.40
51383;DHT22;37475;43.358;1.248;2022-12-07T05:18:22;7.90;92.30
51383;DHT22;37475;43.358;1.248;2022-12-07T05:20:48;7.80;92.40
51383;DHT22;37475;43.358;1.248;2022-12-07T05:23:14;7.90;92.60
51383;DHT22;37475;43.358;1.248;2022-12-07T05:25:40;7.90;92.50
51383;DHT22;37475;43.358;1.248;2022-12-07T05:28:06;7.90;92.50
51383;DHT22;37475;43.358;1.248;2022-12-07T05:30:32;7.90;92.50
51383;DHT22;37475;43.358;1.248;2022-12-07T05:32:58;7.90;92.50
51383;DHT22;37475;43.358;1.248;2022-12-07T05:35:24;7.90;92.40
51383;DHT22;37475;43.358;1.248;2022-12-07T05:37:50;7.90;92.30
51383;DHT22;37475;43.358;1.248;2022-12-07T05:40:16;7.70;92.60
51383;DHT22;37475;43.358;1.248;2022-12-07T05:42:44;7.80;92.80
51383;DHT22;37475;43.358;1.248;2022-12-07T05:45:11;7.80;92.70
51383;DHT22;37475;43.358;1.248;2022-12-07T05:47:37;7.80;92.80
51383;DHT22;37475;43.358;1.248;2022-12-07T05:50:04;7.80;92.70
51383;DHT22;37475;43.358;1.248;2022-12-07T05:52:31;7.90;92.70
51383;DHT22;37475;43.358;1.248;2022-12-07T05:54:57;7.80;92.60
51383;DHT22;37475;43.358;1.248;2022-12-07T05:57:23;7.70;92.60
51383;DHT22;37475;43.358;1.248;2022-12-07T05:59:49;7.60;92.80
51383;DHT22;37475;43.358;1.248;2022-12-07T06:02:16;7.50;93.10
51383;DHT22;37475;43.358;1.248;2022-12-07T06:04:45;7.60;93.40
51383;DHT22;37475;43.358;1.248;2022-12-07T06:07:13;7.60;93.50
51383;DHT22;37475;43.358;1.248;2022-12-07T06:09:40;7.60;93.30
51383;DHT22;37475;43.358;1.248;2022-12-07T06:12:09;7.40;93.40
51383;DHT22;37475;43.358;1.248;2022-12-07T06:14:54;7.40;93.60
51383;DHT22;37475;43.358;1.248;2022-12-07T06:17:20;7.50;93.60
51383;DHT22;37475;43.358;1.248;2022-12-07T06:19:46;7.60;93.50
51383;DHT22;37475;43.358;1.248;2022-12-07T06:22:12;7.60;93.40
51383;DHT22;37475;43.358;1.248;2022-12-07T06:24:38;7.50;93.30
51383;DHT22;37475;43.358;1.248;2022-12-07T06:27:05;7.30;93.50
51383;DHT22;37475;43.358;1.248;2022-12-07T06:29:31;7.40;93.60
51383;DHT22;37475;43.358;1.248;2022-12-07T06:31:57;7.40;93.60
51383;DHT22;37475;43.358;1.248;2022-12-07T06:34:24;7.40;93.70
51383;DHT22;37475;43.358;1.248;2022-12-07T06:36:52;7.40;93.60
51383;DHT22;37475;43.358;1.248;2022-12-07T06:39:20;7.20;93.70
51383;DHT22;37475;43.358;1.248;2022-12-07T06:41:48;7.30;93.80
51383;DHT22;37475;43.358;1.248;2022-12-07T06:44:14;7.20;93.60
51383;DHT22;37475;43.358;1.248;2022-12-07T06:46:40;7.10;93.90
51383;DHT22;37475;43.358;1.248;2022-12-07T06:49:06;7.10;94.30
51383;DHT22;37475;43.358;1.248;2022-12-07T06:51:32;7.10;94.40
51383;DHT22;37475;43.358;1.248;2022-12-07T06:54:00;7.00;94.50
51383;DHT22;37475;43.358;1.248;2022-12-07T06:56:26;7.10;94.60
51383;DHT22;37475;43.358;1.248;2022-12-07T06:58:52;7.10;94.70
51383;DHT22;37475;43.358;1.248;2022-12-07T07:01:18;7.00;94.70
51383;DHT22;37475;43.358;1.248;2022-12-07T07:03:45;7.00;94.70
51383;DHT22;37475;43.358;1.248;2022-12-07T07:06:12;7.10;94.80
51383;DHT22;37475;43.358;1.248;2022-12-07T07:08:38;6.90;94.70
51383;DHT22;37475;43.358;1.248;2022-12-07T07:11:06;7.00;94.80
51383;DHT22;37475;43.358;1.248;2022-12-07T07:13:32;6.90;94.90
51383;DHT22;37475;43.358;1.248;2022-12-07T07:15:58;7.00;95.10
51383;DHT22;37475;43.358;1.248;2022-12-07T07:18:25;6.90;95.30
51383;DHT22;37475;43.358;1.248;2022-12-07T07:20:52;7.00;95.40
51383;DHT22;37475;43.358;1.248;2022-12-07T07:23:18;7.00;95.50
51383;DHT22;37475;43.358;1.248;2022-12-07T07:25:45;6.90;95.50
51383;DHT22;37475;43.358;1.248;2022-12-07T07:28:11;6.90;95.60
51383;DHT22;37475;43.358;1.248;2022-12-07T07:30:37;7.00;95.70
51383;DHT22;37475;43.358;1.248;2022-12-07T07:33:04;6.90;95.70
51383;DHT22;37475;43.358;1.248;2022-12-07T07:35:32;6.90;95.70
51383;DHT22;37475;43.358;1.248;2022-12-07T07:37:59;6.90;95.80
51383;DHT22;37475;43.358;1.248;2022-12-07T07:40:26;6.90;95.80
51383;DHT22;37475;43.358;1.248;2022-12-07T07:42:53;7.00;95.80
51383;DHT22;37475;43.358;1.248;2022-12-07T07:45:21;7.10;95.80
51383;DHT22;37475;43.358;1.248;2022-12-07T07:47:48;7.00;95.60
51383;DHT22;37475;43.358;1.248;2022-12-07T07:50:14;7.00;95.70
51383;DHT22;37475;43.358;1.248;2022-12-07T07:52:41;7.10;95.70
51383;DHT22;37475;43.358;1.248;2022-12-07T07:55:07;7.10;95.50
51383;DHT22;37475;43.358;1.248;2022-12-07T07:57:35;7.00;95.50
51383;DHT22;37475;43.358;1.248;2022-12-07T08:00:07;7.00;95.50
51383;DHT22;37475;43.358;1.248;2022-12-07T08:02:38;7.00;95.30
51383;DHT22;37475;43.358;1.248;2022-12-07T08:05:04;7.00;95.40
51383;DHT22;37475;43.358;1.248;2022-12-07T08:07:30;7.00;95.30
51383;DHT22;37475;43.358;1.248;2022-12-07T08:09:56;6.90;95.30
51383;DHT22;37475;43.358;1.248;2022-12-07T08:12:22;6.90;95.40
51383;DHT22;37475;43.358;1.248;2022-12-07T08:14:48;6.90;95.50
51383;DHT22;37475;43.358;1.248;2022-12-07T08:17:14;6.80;95.60
51383;DHT22;37475;43.358;1.248;2022-12-07T08:19:40;6.80;95.70
51383;DHT22;37475;43.358;1.248;2022-12-07T08:22:06;6.90;95.80
51383;DHT22;37475;43.358;1.248;2022-12-07T08:24:35;6.90;95.80
51383;DHT22;37475;43.358;1.248;2022-12-07T08:27:02;6.90;95.80
51383;DHT22;37475;43.358;1.248;2022-12-07T08:29:28;6.90;95.80
51383;DHT22;37475;43.358;1.248;2022-12-07T08:31:54;7.10;95.90
51383;DHT22;37475;43.358;1.248;2022-12-07T08:34:20;7.10;96.00
51383;DHT22;37475;43.358;1.248;2022-12-07T08:36:46;7.20;95.90
51383;DHT22;37475;43.358;1.248;2022-12-07T08:39:12;7.30;95.90
51383;DHT22;37475;43.358;1.248;2022-12-07T08:41:38;7.40;95.90
51383;DHT22;37475;43.358;1.248;2022-12-07T08:44:04;7.40;95.90
51383;DHT22;37475;43.358;1.248;2022-12-07T08:46:40;7.60;95.90
51383;DHT22;37475;43.358;1.248;2022-12-07T08:49:15;7.60;95.90
51383;DHT22;37475;43.358;1.248;2022-12-07T08:51:44;7.70;95.90
51383;DHT22;37475;43.358;1.248;2022-12-07T08:54:13;7.80;95.80
51383;DHT22;37475;43.358;1.248;2022-12-07T08:56:41;8.00;95.80
51383;DHT22;37475;43.358;1.248;2022-12-07T08:59:07;8.10;95.70
51383;DHT22;37475;43.358;1.248;2022-12-07T09:01:33;8.10;95.60
51383;DHT22;37475;43.358;1.248;2022-12-07T09:03:59;8.30;95.50
51383;DHT22;37475;43.358;1.248;2022-12-07T09:06:25;8.30;95.40
51383;DHT22;37475;43.358;1.248;2022-12-07T09:08:54;8.50;95.30
51383;DHT22;37475;43.358;1.248;2022-12-07T09:11:23;8.60;95.10
51383;DHT22;37475;43.358;1.248;2022-12-07T09:13:49;8.60;94.80
51383;DHT22;37475;43.358;1.248;2022-12-07T09:16:15;8.60;94.60
51383;DHT22;37475;43.358;1.248;2022-12-07T09:18:41;8.70;94.30
51383;DHT22;37475;43.358;1.248;2022-12-07T09:21:07;8.70;93.90
51383;DHT22;37475;43.358;1.248;2022-12-07T09:23:33;8.70;93.70
51383;DHT22;37475;43.358;1.248;2022-12-07T09:26:04;8.80;93.30
51383;DHT22;37475;43.358;1.248;2022-12-07T09:28:33;8.90;93.30
51383;DHT22;37475;43.358;1.248;2022-12-07T09:30:59;8.90;92.80
51383;DHT22;37475;43.358;1.248;2022-12-07T09:33:25;9.00;92.80
51383;DHT22;37475;43.358;1.248;2022-12-07T09:35:51;9.00;92.70
51383;DHT22;37475;43.358;1.248;2022-12-07T09:38:19;9.10;92.80
51383;DHT22;37475;43.358;1.248;2022-12-07T09:40:45;9.10;92.50
51383;DHT22;37475;43.358;1.248;2022-12-07T09:43:16;9.20;92.50
51383;DHT22;37475;43.358;1.248;2022-12-07T09:45:44;9.20;92.40
51383;DHT22;37475;43.358;1.248;2022-12-07T09:48:26;9.30;92.40
51383;DHT22;37475;43.358;1.248;2022-12-07T09:50:58;9.40;92.40
51383;DHT22;37475;43.358;1.248;2022-12-07T09:53:34;9.50;92.20
51383;DHT22;37475;43.358;1.248;2022-12-07T09:56:03;9.70;92.20
51383;DHT22;37475;43.358;1.248;2022-12-07T09:58:30;9.70;91.70
51383;DHT22;37475;43.358;1.248;2022-12-07T10:01:01;9.90;91.40
51383;DHT22;37475;43.358;1.248;2022-12-07T10:03:36;10.00;91.00
51383;DHT22;37475;43.358;1.248;2022-12-07T10:06:04;10.10;90.60
51383;DHT22;37475;43.358;1.248;2022-12-07T10:08:32;10.20;90.30
51383;DHT22;37475;43.358;1.248;2022-12-07T10:10:59;10.30;90.00
51383;DHT22;37475;43.358;1.248;2022-12-07T10:13:35;10.30;89.70
51383;DHT22;37475;43.358;1.248;2022-12-07T10:16:03;10.50;89.30
51383;DHT22;37475;43.358;1.248;2022-12-07T10:18:38;10.70;88.40
51383;DHT22;37475;43.358;1.248;2022-12-07T10:21:14;11.20;87.70
51383;DHT22;37475;43.358;1.248;2022-12-07T10:24:05;11.40;86.50
51383;DHT22;37475;43.358;1.248;2022-12-07T10:34:41;13.80;79.80
51383;DHT22;37475;43.358;1.248;2022-12-07T10:37:14;14.10;77.50
51383;DHT22;37475;43.358;1.248;2022-12-07T10:42:29;15.10;75.90
51383;DHT22;37475;43.358;1.248;2022-12-07T10:48:12;16.40;71.70
51383;DHT22;37475;43.358;1.248;2022-12-07T11:02:40;15.70;68.20
51383;DHT22;37475;43.358;1.248;2022-12-07T11:11:13;17.10;63.00
51383;DHT22;37475;43.358;1.248;2022-12-07T11:14:25;17.10;65.70
51383;DHT22;37475;43.358;1.248;2022-12-07T11:17:01;17.10;65.40
51383;DHT22;37475;43.358;1.248;2022-12-07T11:23:12;17.70;63.40
51383;DHT22;37475;43.358;1.248;2022-12-07T11:25:59;18.70;60.60
51383;DHT22;37475;43.358;1.248;2022-12-07T11:37:57;18.70;59.10
51383;DHT22;37475;43.358;1.248;2022-12-07T11:40:34;19.20;56.20
51383;DHT22;37475;43.358;1.248;2022-12-07T11:46:04;18.70;59.90
51383;DHT22;37475;43.358;1.248;2022-12-07T11:48:43;17.80;59.70
51383;DHT22;37475;43.358;1.248;2022-12-07T11:51:13;16.70;64.60
51383;DHT22;37475;43.358;1.248;2022-12-07T11:53:43;16.30;66.00
51383;DHT22;37475;43.358;1.248;2022-12-07T11:56:15;16.30;67.00
51383;DHT22;37475;43.358;1.248;2022-12-07T11:59:17;16.00;66.80
51383;DHT22;37475;43.358;1.248;2022-12-07T12:04:44;15.90;67.80
51383;DHT22;37475;43.358;1.248;2022-12-07T12:07:17;15.70;67.90
51383;DHT22;37475;43.358;1.248;2022-12-07T12:10:18;16.00;68.10
51383;DHT22;37475;43.358;1.248;2022-12-07T12:16:09;16.90;65.50
51383;DHT22;37475;43.358;1.248;2022-12-07T12:18:56;17.20;64.60
51383;DHT22;37475;43.358;1.248;2022-12-07T12:21:30;17.60;61.90
51383;DHT22;37475;43.358;1.248;2022-12-07T12:24:00;17.90;59.30
51383;DHT22;37475;43.358;1.248;2022-12-07T12:26:33;17.80;61.50
51383;DHT22;37475;43.358;1.248;2022-12-07T12:29:03;17.10;61.20
51383;DHT22;37475;43.358;1.248;2022-12-07T12:31:43;18.30;59.60
51383;DHT22;37475;43.358;1.248;2022-12-07T12:34:30;19.40;57.90
51383;DHT22;37475;43.358;1.248;2022-12-07T12:40:37;19.50;56.80
51383;DHT22;37475;43.358;1.248;2022-12-07T12:43:40;20.10;53.40
51383;DHT22;37475;43.358;1.248;2022-12-07T12:49:37;21.30;49.00
51383;DHT22;37475;43.358;1.248;2022-12-07T12:57:35;21.20;50.70
51383;DHT22;37475;43.358;1.248;2022-12-07T13:00:22;20.10;54.70
51383;DHT22;37475;43.358;1.248;2022-12-07T13:02:54;19.30;55.20
51383;DHT22;37475;43.358;1.248;2022-12-07T13:05:30;18.40;57.90
51383;DHT22;37475;43.358;1.248;2022-12-07T13:08:18;18.20;58.70
51383;DHT22;37475;43.358;1.248;2022-12-07T13:10:47;17.70;59.80
51383;DHT22;37475;43.358;1.248;2022-12-07T13:23:55;15.40;68.30
51383;DHT22;37475;43.358;1.248;2022-12-07T13:26:36;15.10;69.70
51383;DHT22;37475;43.358;1.248;2022-12-07T13:29:18;15.50;69.50
51383;DHT22;37475;43.358;1.248;2022-12-07T13:34:40;16.80;65.30
51383;DHT22;37475;43.358;1.248;2022-12-07T13:37:29;17.60;62.20
51383;DHT22;37475;43.358;1.248;2022-12-07T13:40:00;17.30;62.80
51383;DHT22;37475;43.358;1.248;2022-12-07T13:42:37;16.90;63.80
51383;DHT22;37475;43.358;1.248;2022-12-07T13:45:31;16.40;65.00
51383;DHT22;37475;43.358;1.248;2022-12-07T13:51:01;15.90;67.70
51383;DHT22;37475;43.358;1.248;2022-12-07T13:53:29;15.50;68.80
51383;DHT22;37475;43.358;1.248;2022-12-07T13:56:00;15.20;70.30
51383;DHT22;37475;43.358;1.248;2022-12-07T13:58:30;15.10;70.90
51383;DHT22;37475;43.358;1.248;2022-12-07T14:00:57;15.10;71.60
51383;DHT22;37475;43.358;1.248;2022-12-07T14:03:33;14.90;71.60
51383;DHT22;37475;43.358;1.248;2022-12-07T14:06:13;14.80;72.60
51383;DHT22;37475;43.358;1.248;2022-12-07T14:08:42;14.60;73.50
51383;DHT22;37475;43.358;1.248;2022-12-07T14:11:19;14.40;74.40
51383;DHT22;37475;43.358;1.248;2022-12-07T14:19:00;14.40;74.50
51383;DHT22;37475;43.358;1.248;2022-12-07T14:21:32;14.40;74.80
51383;DHT22;37475;43.358;1.248;2022-12-07T14:24:17;14.20;75.00
51383;DHT22;37475;43.358;1.248;2022-12-07T14:26:46;14.50;75.10
51383;DHT22;37475;43.358;1.248;2022-12-07T14:29:32;14.40;75.00
51383;DHT22;37475;43.358;1.248;2022-12-07T14:32:43;14.30;75.00
51383;DHT22;37475;43.358;1.248;2022-12-07T14:37:26;14.20;75.00
51383;DHT22;37475;43.358;1.248;2022-12-07T14:39:53;14.10;75.80
51383;DHT22;37475;43.358;1.248;2022-12-07T14:42:19;14.10;75.90
51383;DHT22;37475;43.358;1.248;2022-12-07T14:44:45;14.10;76.40
51383;DHT22;37475;43.358;1.248;2022-12-07T14:47:11;13.90;76.60
51383;DHT22;37475;43.358;1.248;2022-12-07T14:49:38;13.90;76.90
51383;DHT22;37475;43.358;1.248;2022-12-07T14:52:05;13.90;77.10
51383;DHT22;37475;43.358;1.248;2022-12-07T14:54:32;14.00;77.40
51383;DHT22;37475;43.358;1.248;2022-12-07T14:56:58;14.10;77.00
51383;DHT22;37475;43.358;1.248;2022-12-07T14:59:24;14.10;76.70
51383;DHT22;37475;43.358;1.248;2022-12-07T15:01:50;14.00;76.30
51383;DHT22;37475;43.358;1.248;2022-12-07T15:04:16;14.00;76.60
51383;DHT22;37475;43.358;1.248;2022-12-07T15:06:42;13.90;76.80
51383;DHT22;37475;43.358;1.248;2022-12-07T15:09:11;13.60;77.70
51383;DHT22;37475;43.358;1.248;2022-12-07T15:11:37;13.60;78.00
51383;DHT22;37475;43.358;1.248;2022-12-07T15:14:03;13.50;78.40
51383;DHT22;37475;43.358;1.248;2022-12-07T15:16:39;13.20;78.90
51383;DHT22;37475;43.358;1.248;2022-12-07T15:19:16;13.00;79.20
51383;DHT22;37475;43.358;1.248;2022-12-07T15:21:44;12.90;79.10
51383;DHT22;37475;43.358;1.248;2022-12-07T15:24:11;12.80;79.40
51383;DHT22;37475;43.358;1.248;2022-12-07T15:26:38;12.90;79.00
51383;DHT22;37475;43.358;1.248;2022-12-07T15:29:04;12.80;79.30
51383;DHT22;37475;43.358;1.248;2022-12-07T15:31:30;12.80;79.20
51383;DHT22;37475;43.358;1.248;2022-12-07T15:33:56;12.70;79.30
51383;DHT22;37475;43.358;1.248;2022-12-07T15:36:27;12.60;79.50
51383;DHT22;37475;43.358;1.248;2022-12-07T15:38:55;12.50;79.90
51383;DHT22;37475;43.358;1.248;2022-12-07T15:41:21;12.30;80.40
51383;DHT22;37475;43.358;1.248;2022-12-07T15:43:47;12.20;80.50
51383;DHT22;37475;43.358;1.248;2022-12-07T15:46:40;12.10;80.50
51383;DHT22;37475;43.358;1.248;2022-12-07T15:49:18;12.10;80.50
51383;DHT22;37475;43.358;1.248;2022-12-07T15:51:45;11.90;80.00
51383;DHT22;37475;43.358;1.248;2022-12-07T15:54:24;11.90;80.10
51383;DHT22;37475;43.358;1.248;2022-12-07T15:56:51;11.90;79.70
51383;DHT22;37475;43.358;1.248;2022-12-07T15:59:17;11.90;79.10
51383;DHT22;37475;43.358;1.248;2022-12-07T16:01:43;12.00;78.60
51383;DHT22;37475;43.358;1.248;2022-12-07T16:04:09;12.00;78.10
51383;DHT22;37475;43.358;1.248;2022-12-07T16:06:35;12.00;78.20
51383;DHT22;37475;43.358;1.248;2022-12-07T16:09:01;12.00;77.70
51383;DHT22;37475;43.358;1.248;2022-12-07T16:11:27;11.90;77.90
51383;DHT22;37475;43.358;1.248;2022-12-07T16:13:53;11.60;78.90
51383;DHT22;37475;43.358;1.248;2022-12-07T16:16:19;11.60;79.60
51383;DHT22;37475;43.358;1.248;2022-12-07T16:18:48;11.70;79.50
51383;DHT22;37475;43.358;1.248;2022-12-07T16:21:17;11.60;79.10
51383;DHT22;37475;43.358;1.248;2022-12-07T16:23:43;11.60;78.90
51383;DHT22;37475;43.358;1.248;2022-12-07T16:26:13;11.60;78.40
51383;DHT22;37475;43.358;1.248;2022-12-07T16:28:40;11.60;78.00
51383;DHT22;37475;43.358;1.248;2022-12-07T16:31:12;11.60;77.90
51383;DHT22;37475;43.358;1.248;2022-12-07T16:33:41;11.60;77.90
51383;DHT22;37475;43.358;1.248;2022-12-07T16:36:08;11.60;77.70
51383;DHT22;37475;43.358;1.248;2022-12-07T16:38:36;11.40;77.70
51383;DHT22;37475;43.358;1.248;2022-12-07T16:41:05;11.20;78.50
51383;DHT22;37475;43.358;1.248;2022-12-07T16:43:31;11.10;79.30
51383;DHT22;37475;43.358;1.248;2022-12-07T16:45:57;11.10;79.50
51383;DHT22;37475;43.358;1.248;2022-12-07T16:48:23;11.10;79.40
51383;DHT22;37475;43.358;1.248;2022-12-07T16:50:49;11.10;79.40
51383;DHT22;37475;43.358;1.248;2022-12-07T16:53:15;11.00;80.00
51383;DHT22;37475;43.358;1.248;2022-12-07T16:55:43;10.80;80.40
51383;DHT22;37475;43.358;1.248;2022-12-07T16:58:12;10.60;80.70
51383;DHT22;37475;43.358;1.248;2022-12-07T17:00:39;10.60;80.50
51383;DHT22;37475;43.358;1.248;2022-12-07T17:03:06;10.60;80.10
51383;DHT22;37475;43.358;1.248;2022-12-07T17:05:32;10.60;79.80
51383;DHT22;37475;43.358;1.248;2022-12-07T17:07:58;10.50;79.90
51383;DHT22;37475;43.358;1.248;2022-12-07T17:10:25;10.20;80.70
51383;DHT22;37475;43.358;1.248;2022-12-07T17:12:51;10.20;80.90
51383;DHT22;37475;43.358;1.248;2022-12-07T17:15:19;10.10;80.80
51383;DHT22;37475;43.358;1.248;2022-12-07T17:20:21;9.80;81.90
51383;DHT22;37475;43.358;1.248;2022-12-07T17:22:49;9.70;82.30
51383;DHT22;37475;43.358;1.248;2022-12-07T17:25:16;9.60;82.20
51383;DHT22;37475;43.358;1.248;2022-12-07T17:27:43;9.60;82.20
51383;DHT22;37475;43.358;1.248;2022-12-07T17:30:10;9.30;82.70
51383;DHT22;37475;43.358;1.248;2022-12-07T17:32:36;9.20;82.90
51383;DHT22;37475;43.358;1.248;2022-12-07T17:35:02;9.00;83.00
51383;DHT22;37475;43.358;1.248;2022-12-07T17:37:30;9.00;83.10
51383;DHT22;37475;43.358;1.248;2022-12-07T17:39:57;8.90;83.30
51383;DHT22;37475;43.358;1.248;2022-12-07T17:42:27;8.90;83.30
51383;DHT22;37475;43.358;1.248;2022-12-07T17:45:08;8.80;83.70
51383;DHT22;37475;43.358;1.248;2022-12-07T17:47:38;8.70;84.10
51383;DHT22;37475;43.358;1.248;2022-12-07T17:50:06;8.70;84.40
51383;DHT22;37475;43.358;1.248;2022-12-07T17:52:32;8.60;84.80
51383;DHT22;37475;43.358;1.248;2022-12-07T17:55:17;8.40;85.50
51383;DHT22;37475;43.358;1.248;2022-12-07T17:57:43;8.40;86.10
51383;DHT22;37475;43.358;1.248;2022-12-07T18:00:10;8.30;86.00
51383;DHT22;37475;43.358;1.248;2022-12-07T18:02:37;8.40;85.90
51383;DHT22;37475;43.358;1.248;2022-12-07T18:05:03;8.40;86.00
51383;DHT22;37475;43.358;1.248;2022-12-07T18:07:29;8.40;85.90
51383;DHT22;37475;43.358;1.248;2022-12-07T18:09:55;8.50;85.50
51383;DHT22;37475;43.358;1.248;2022-12-07T18:12:22;8.50;85.30